Station History

Weather Underground - logo

Station Historical Data
Daily Summary for September 30, 2017 Units:  English    Metric   Both
« Previous Day
Next Day »
Daily Weekly Monthly Yearly Custom
  High: Low: Average:
Temperature: 83.6 °F 53.4 °F 68.8 °F
Dew Point: 59.1 °F 48.0 °F 53.8 °F
Humidity: 83 % 39 % 61 %
Wind Speed: 6.9 mph 0.0 mph 1.3 mph
Wind Gust: 6.9 mph - -
Wind:- - West
Pressure: 29.93 in 29.79 in -
Precipitation: 0.00 in    
Historical Graphs
 
 
Tabular Data for September 30, 2017
Time Temperature Dew Point Pressure Wind Wind Speed Wind Gust Humidity Rainfall Rate (Hourly)
00:03 62.3 °F 53.2 °F 29.85 in Calm     72 % 0.00 in
00:08 62.4 °F 52.9 °F 29.85 in Calm     71 % 0.00 in
00:13 62.6 °F 52.7 °F 29.85 in Calm     70 % 0.00 in
00:18 62.9 °F 51.4 °F 29.85 in Calm     66 % 0.00 in
00:23 63.5 °F 50.7 °F 29.85 in Calm     63 % 0.00 in
00:28 64.0 °F 51.1 °F 29.85 in Calm     63 % 0.00 in
00:33 64.0 °F 50.7 °F 29.85 in Calm     62 % 0.00 in
00:38 64.1 °F 50.4 °F 29.85 in Calm     61 % 0.00 in
00:43 64.1 °F 50.4 °F 29.85 in Calm     61 % 0.00 in
00:48 64.0 °F 49.8 °F 29.85 in Calm     60 % 0.00 in
00:53 63.9 °F 50.2 °F 29.85 in Calm     61 % 0.00 in
00:58 63.8 °F 51.0 °F 29.85 in Calm     63 % 0.00 in
01:04 63.4 °F 50.6 °F 29.85 in Calm     63 % 0.00 in
01:09 63.1 °F 50.7 °F 29.85 in Calm     64 % 0.00 in
01:14 62.7 °F 51.2 °F 29.85 in Calm     66 % 0.00 in
01:19 62.2 °F 51.1 °F 29.85 in Calm     67 % 0.00 in
01:24 61.8 °F 51.9 °F 29.85 in Calm     70 % 0.00 in
01:29 61.6 °F 52.1 °F 29.85 in Calm     71 % 0.00 in
01:34 61.5 °F 52.8 °F 29.85 in Calm     73 % 0.00 in
01:39 61.3 °F 51.8 °F 29.85 in Calm     71 % 0.00 in
01:44 61.2 °F 52.1 °F 29.85 in Calm     72 % 0.00 in
01:49 61.2 °F 51.7 °F 29.85 in Calm     71 % 0.00 in
01:54 61.1 °F 52.4 °F 29.85 in Calm     73 % 0.00 in
01:59 61.2 °F 53.2 °F 29.85 in Calm     75 % 0.00 in
02:04 61.5 °F 52.0 °F 29.85 in Calm     71 % 0.00 in
02:09 61.7 °F 51.8 °F 29.85 in Calm     70 % 0.00 in
02:14 61.5 °F 52.8 °F 29.85 in Calm     73 % 0.00 in
02:19 61.3 °F 52.2 °F 29.85 in Calm     72 % 0.00 in
02:24 61.6 °F 51.7 °F 29.85 in Calm     70 % 0.00 in
02:29 61.7 °F 51.8 °F 29.85 in Calm     70 % 0.00 in
02:34 61.8 °F 51.5 °F 29.85 in Calm     69 % 0.00 in
02:39 62.0 °F 51.3 °F 29.85 in Calm     68 % 0.00 in
02:44 62.2 °F 50.7 °F 29.85 in Calm     66 % 0.00 in
02:49 62.5 °F 51.0 °F 29.85 in Calm     66 % 0.00 in
02:54 62.3 °F 51.2 °F 29.85 in Calm     67 % 0.00 in
02:59 62.0 °F 51.7 °F 29.85 in Calm     69 % 0.00 in
03:04 61.6 °F 52.5 °F 29.85 in Calm     72 % 0.00 in
03:09 61.2 °F 51.3 °F 29.84 in Calm     70 % 0.00 in
03:14 60.9 °F 51.4 °F 29.84 in Calm     71 % 0.00 in
03:19 61.0 °F 51.1 °F 29.84 in Calm     70 % 0.00 in
03:24 60.8 °F 51.0 °F 29.84 in Calm     70 % 0.00 in
03:29 60.7 °F 50.5 °F 29.84 in Calm     69 % 0.00 in
03:34 60.5 °F 50.7 °F 29.84 in Calm     70 % 0.00 in
03:39 60.3 °F 51.6 °F 29.84 in Calm     73 % 0.00 in
03:44 59.9 °F 51.2 °F 29.84 in Calm     73 % 0.00 in
03:49 59.6 °F 50.9 °F 29.85 in Calm     73 % 0.00 in
03:54 59.2 °F 50.9 °F 29.85 in Calm     74 % 0.00 in
04:05 58.6 °F 51.1 °F 29.85 in Calm     76 % 0.00 in
04:10 58.1 °F 50.6 °F 29.85 in Calm     76 % 0.00 in
04:15 57.6 °F 51.1 °F 29.85 in Calm     79 % 0.00 in
04:20 57.4 °F 50.9 °F 29.85 in Calm     79 % 0.00 in
04:25 57.5 °F 50.7 °F 29.85 in Calm     78 % 0.00 in
04:30 57.6 °F 51.5 °F 29.85 in Calm     80 % 0.00 in
04:35 57.5 °F 51.4 °F 29.85 in Calm     80 % 0.00 in
04:40 57.4 °F 50.9 °F 29.85 in Calm     79 % 0.00 in
04:45 56.9 °F 50.5 °F 29.85 in Calm     79 % 0.00 in
04:50 56.6 °F 50.2 °F 29.86 in Calm     79 % 0.00 in
04:55 56.3 °F 49.9 °F 29.86 in Calm     79 % 0.00 in
05:00 56.1 °F 50.3 °F 29.86 in Calm     81 % 0.00 in
05:05 55.8 °F 50.1 °F 29.86 in Calm     81 % 0.00 in
05:10 55.9 °F 49.8 °F 29.86 in Calm     80 % 0.00 in
05:15 56.0 °F 49.6 °F 29.86 in Calm     79 % 0.00 in
05:20 56.0 °F 49.9 °F 29.86 in Calm     80 % 0.00 in
05:25 55.9 °F 49.8 °F 29.87 in Calm     80 % 0.00 in
05:30 55.7 °F 50.0 °F 29.87 in Calm     81 % 0.00 in
05:35 55.4 °F 50.0 °F 29.87 in Calm     82 % 0.00 in
05:40 55.2 °F 49.8 °F 29.87 in Calm     82 % 0.00 in
05:45 55.1 °F 49.7 °F 29.87 in North 1.0 mph   82 % 0.00 in
05:50 55.0 °F 49.6 °F 29.87 in North 1.2 mph 1.2 mph 82 % 0.00 in
05:55 54.7 °F 49.0 °F 29.87 in North 1.2 mph   81 % 0.00 in
06:00 54.4 °F 49.0 °F 29.87 in Calm     82 % 0.00 in
06:05 54.0 °F 48.6 °F 29.87 in North 1.2 mph   82 % 0.00 in
06:10 53.8 °F 48.8 °F 29.87 in North 1.2 mph 1.2 mph 83 % 0.00 in
06:15 53.8 °F 48.8 °F 29.87 in North 1.2 mph   83 % 0.00 in
06:20 53.7 °F 48.7 °F 29.88 in Calm     83 % 0.00 in
06:25 53.7 °F 48.7 °F 29.88 in Calm     83 % 0.00 in
06:30 53.7 °F 48.7 °F 29.88 in Calm     83 % 0.00 in
06:35 53.7 °F 48.3 °F 29.88 in Calm     82 % 0.00 in
06:40 53.7 °F 48.3 °F 29.88 in Calm     82 % 0.00 in
06:45 53.8 °F 48.1 °F 29.88 in North 1.2 mph   81 % 0.00 in
06:50 53.7 °F 48.0 °F 29.88 in Calm     81 % 0.00 in
06:51 53.7 °F 48.0 °F 29.89 in North 1.2 mph 1.2 mph 81 % 0.00 in
06:56 53.6 °F 48.2 °F 29.89 in Calm     82 % 0.00 in
07:01 53.6 °F 48.2 °F 29.89 in Calm     82 % 0.00 in
07:03 53.5 °F 48.5 °F 29.89 in Calm     83 % 0.00 in
07:08 53.4 °F 48.4 °F 29.89 in Calm     83 % 0.00 in
07:13 53.5 °F 48.5 °F 29.89 in Calm     83 % 0.00 in
07:18 53.7 °F 48.7 °F 29.90 in North 1.0 mph 1.0 mph 83 % 0.00 in
07:23 54.0 °F 49.0 °F 29.90 in North 1.0 mph 1.0 mph 83 % 0.00 in
07:28 54.3 °F 48.9 °F 29.90 in North 1.2 mph 1.2 mph 82 % 0.00 in
07:33 54.6 °F 49.2 °F 29.90 in North 1.2 mph   82 % 0.00 in
07:38 54.9 °F 49.2 °F 29.90 in Calm   0.4 mph 81 % 0.00 in
07:43 55.2 °F 49.5 °F 29.90 in North 2.0 mph 2.0 mph 81 % 0.00 in
07:48 55.6 °F 49.9 °F 29.91 in North 1.2 mph   81 % 0.00 in
07:53 56.1 °F 50.0 °F 29.91 in North 2.3 mph 2.3 mph 80 % 0.00 in
07:58 56.5 °F 50.4 °F 29.91 in Calm   0.1 mph 80 % 0.00 in
08:01 56.9 °F 50.5 °F 29.91 in North 1.2 mph   79 % 0.00 in
08:06 58.0 °F 51.2 °F 29.91 in NE 2.3 mph 2.3 mph 78 % 0.00 in
08:11 59.2 °F 51.6 °F 29.91 in ENE 2.3 mph 2.3 mph 76 % 0.00 in
08:16 60.4 °F 52.1 °F 29.91 in ENE 1.0 mph   74 % 0.00 in
08:21 61.1 °F 52.0 °F 29.91 in SE 2.0 mph 2.0 mph 72 % 0.00 in
08:26 61.8 °F 52.3 °F 29.91 in SSW 2.3 mph 2.3 mph 71 % 0.00 in
08:31 62.6 °F 52.3 °F 29.91 in South 3.5 mph 3.5 mph 69 % 0.00 in
08:36 63.1 °F 52.4 °F 29.91 in East 3.5 mph 3.5 mph 68 % 0.00 in
08:41 63.5 °F 52.7 °F 29.91 in ESE 2.3 mph 2.3 mph 68 % 0.00 in
08:47 64.1 °F 52.9 °F 29.91 in East 2.3 mph 2.3 mph 67 % 0.00 in
08:52 64.4 °F 53.2 °F 29.92 in Calm     67 % 0.00 in
08:57 65.2 °F 53.6 °F 29.92 in Calm     66 % 0.00 in
09:02 66.0 °F 53.5 °F 29.92 in SSW 2.3 mph 2.3 mph 64 % 0.00 in
09:07 66.4 °F 53.4 °F 29.92 in SSE 3.5 mph 3.5 mph 63 % 0.00 in
09:12 66.8 °F 54.2 °F 29.92 in ESE 1.2 mph 1.2 mph 64 % 0.00 in
09:13 66.8 °F 54.2 °F 29.92 in SSE 3.5 mph 3.5 mph 64 % 0.00 in
09:18 67.3 °F 54.3 °F 29.92 in SE 1.2 mph 1.2 mph 63 % 0.00 in
09:23 68.2 °F 54.7 °F 29.92 in SE 1.2 mph   62 % 0.00 in
09:28 68.7 °F 55.2 °F 29.92 in South 1.2 mph 1.2 mph 62 % 0.00 in
09:33 68.9 °F 54.9 °F 29.92 in SSE 2.3 mph 2.3 mph 61 % 0.00 in
09:38 69.3 °F 54.8 °F 29.92 in South 2.3 mph 2.3 mph 60 % 0.00 in
09:39 69.3 °F 54.8 °F 29.93 in South 3.5 mph 3.5 mph 60 % 0.00 in
09:44 69.4 °F 54.9 °F 29.93 in NNW 1.2 mph 1.2 mph 60 % 0.00 in
09:49 69.4 °F 55.4 °F 29.92 in South 2.0 mph 2.0 mph 61 % 0.00 in
09:54 69.8 °F 55.3 °F 29.92 in ESE 1.2 mph 1.2 mph 60 % 0.00 in
09:59 70.5 °F 55.5 °F 29.92 in South 1.2 mph   59 % 0.00 in
10:04 70.9 °F 54.9 °F 29.92 in Calm     57 % 0.00 in
10:09 71.2 °F 55.7 °F 29.92 in East 3.5 mph 3.5 mph 58 % 0.00 in
10:14 71.4 °F 55.4 °F 29.92 in South 2.3 mph 2.3 mph 57 % 0.00 in
10:19 71.9 °F 55.3 °F 29.92 in ESE 1.2 mph 1.2 mph 56 % 0.00 in
10:24 72.5 °F 55.4 °F 29.92 in ENE 3.0 mph 3.0 mph 55 % 0.00 in
10:29 72.6 °F 55.5 °F 29.92 in East 4.6 mph 4.6 mph 55 % 0.00 in
10:34 72.5 °F 55.4 °F 29.92 in NW 1.2 mph 1.2 mph 55 % 0.00 in
10:39 73.0 °F 55.9 °F 29.92 in NW 1.0 mph 1.0 mph 55 % 0.00 in
10:44 73.7 °F 56.0 °F 29.92 in NE 2.3 mph 2.3 mph 54 % 0.00 in
10:49 73.5 °F 55.8 °F 29.92 in ENE 3.5 mph 3.5 mph 54 % 0.00 in
10:54 73.8 °F 54.5 °F 29.91 in East 2.0 mph 2.0 mph 51 % 0.00 in
10:59 74.1 °F 55.9 °F 29.92 in SE 2.3 mph 2.3 mph 53 % 0.00 in
11:04 74.3 °F 55.0 °F 29.91 in NNW 1.0 mph 1.0 mph 51 % 0.00 in
11:10 74.6 °F 55.8 °F 29.91 in SE 4.0 mph 4.0 mph 52 % 0.00 in
11:15 75.0 °F 55.1 °F 29.91 in ENE 1.2 mph 1.2 mph 50 % 0.00 in
11:20 74.6 °F 54.7 °F 29.91 in NW 1.2 mph   50 % 0.00 in
11:24 75.0 °F 54.5 °F 29.91 in WSW 2.0 mph 2.0 mph 49 % 0.00 in
11:29 74.5 °F 54.1 °F 29.91 in Calm   0.1 mph 49 % 0.00 in
11:34 75.2 °F 55.8 °F 29.90 in South 1.2 mph   51 % 0.00 in
11:40 75.9 °F 55.4 °F 29.90 in WNW 3.5 mph 3.5 mph 49 % 0.00 in
11:45 76.3 °F 55.7 °F 29.90 in WNW 1.2 mph 1.2 mph 49 % 0.00 in
11:50 76.6 °F 55.4 °F 29.90 in SE 1.2 mph 1.2 mph 48 % 0.00 in
11:55 77.0 °F 56.4 °F 29.90 in NW 2.3 mph 2.3 mph 49 % 0.00 in
12:00 76.8 °F 55.6 °F 29.90 in North 2.3 mph 2.3 mph 48 % 0.00 in
12:05 77.3 °F 56.1 °F 29.90 in West 2.3 mph 2.3 mph 48 % 0.00 in
12:10 77.3 °F 55.5 °F 29.90 in Calm     47 % 0.00 in
12:15 77.2 °F 56.0 °F 29.90 in East 1.2 mph 1.2 mph 48 % 0.00 in
12:20 77.4 °F 55.6 °F 29.90 in WSW 1.2 mph 1.2 mph 47 % 0.00 in
12:25 77.7 °F 56.4 °F 29.89 in SSE 2.3 mph 2.3 mph 48 % 0.00 in
12:30 78.3 °F 57.0 °F 29.89 in NNW 3.5 mph 3.5 mph 48 % 0.00 in
12:35 78.4 °F 57.1 °F 29.89 in North 3.5 mph 3.5 mph 48 % 0.00 in
12:40 78.5 °F 57.2 °F 29.89 in NW 2.3 mph 2.3 mph 48 % 0.00 in
12:46 79.3 °F 57.3 °F 29.88 in SSE 2.3 mph 2.3 mph 47 % 0.00 in
12:51 79.3 °F 56.1 °F 29.88 in WNW 3.5 mph 3.5 mph 45 % 0.00 in
12:56 79.0 °F 57.0 °F 29.88 in WNW 2.3 mph 2.3 mph 47 % 0.00 in
13:01 78.9 °F 57.0 °F 29.87 in NNW 1.0 mph 1.0 mph 47 % 0.00 in
13:06 79.5 °F 56.3 °F 29.87 in West 2.3 mph 2.3 mph 45 % 0.00 in
13:11 79.8 °F 57.2 °F 29.87 in NNE 2.3 mph 2.3 mph 46 % 0.00 in
13:16 79.8 °F 57.2 °F 29.87 in NNE 1.2 mph 1.2 mph 46 % 0.00 in
13:21 80.3 °F 57.6 °F 29.87 in NW 3.5 mph 3.5 mph 46 % 0.00 in
13:26 80.3 °F 57.0 °F 29.87 in NNW 3.5 mph 3.5 mph 45 % 0.00 in
13:31 80.2 °F 57.5 °F 29.87 in NW 4.6 mph 4.6 mph 46 % 0.00 in
13:36 80.4 °F 57.7 °F 29.87 in WNW 5.8 mph 5.8 mph 46 % 0.00 in
13:41 80.3 °F 57.6 °F 29.86 in NW 3.5 mph 3.5 mph 46 % 0.00 in
13:46 80.6 °F 58.5 °F 29.86 in WNW 3.5 mph 3.5 mph 47 % 0.00 in
13:51 81.0 °F 58.3 °F 29.86 in WNW 3.5 mph 3.5 mph 46 % 0.00 in
13:56 81.2 °F 58.5 °F 29.85 in NNW 3.5 mph 3.5 mph 46 % 0.00 in
14:01 81.2 °F 57.8 °F 29.85 in NW 3.5 mph 3.5 mph 45 % 0.00 in
14:06 81.4 °F 58.0 °F 29.85 in East 1.2 mph 1.5 mph 45 % 0.00 in
14:11 81.8 °F 58.4 °F 29.85 in NNE 2.0 mph 2.0 mph 45 % 0.00 in
14:16 81.7 °F 58.3 °F 29.85 in NNW 3.5 mph 3.5 mph 45 % 0.00 in
14:21 81.9 °F 59.1 °F 29.85 in NW 4.0 mph 4.0 mph 46 % 0.00 in
14:26 81.9 °F 57.8 °F 29.84 in NW 2.3 mph 2.3 mph 44 % 0.00 in
14:31 82.1 °F 57.4 °F 29.84 in WNW 4.6 mph 4.6 mph 43 % 0.00 in
14:37 82.2 °F 58.1 °F 29.84 in WNW 3.5 mph 3.5 mph 44 % 0.00 in
14:42 82.5 °F 58.4 °F 29.84 in NW 5.0 mph 5.0 mph 44 % 0.00 in
14:47 82.5 °F 59.0 °F 29.84 in NW 2.3 mph 2.3 mph 45 % 0.00 in
14:51 82.5 °F 57.1 °F 29.83 in NNW 4.0 mph 4.0 mph 42 % 0.00 in
14:57 82.5 °F 56.4 °F 29.83 in WNW 3.5 mph 3.5 mph 41 % 0.00 in
15:01 82.5 °F 56.4 °F 29.83 in NW 4.0 mph 4.0 mph 41 % 0.00 in
15:07 82.8 °F 57.4 °F 29.83 in NNW 2.3 mph 2.5 mph 42 % 0.00 in
15:12 82.7 °F 57.3 °F 29.82 in NW 2.3 mph 2.3 mph 42 % 0.00 in
15:17 82.8 °F 58.0 °F 29.82 in NW 2.3 mph 2.3 mph 43 % 0.00 in
15:22 82.8 °F 56.0 °F 29.82 in NNW 4.6 mph 4.6 mph 40 % 0.00 in
15:27 83.0 °F 56.2 °F 29.82 in WNW 2.3 mph 2.3 mph 40 % 0.00 in
15:32 83.0 °F 56.9 °F 29.82 in West 2.3 mph 2.3 mph 41 % 0.00 in
15:37 83.1 °F 57.6 °F 29.82 in NW 3.5 mph 3.5 mph 42 % 0.00 in
15:42 83.4 °F 55.8 °F 29.82 in WNW 4.0 mph 4.0 mph 39 % 0.00 in
15:47 83.2 °F 56.4 °F 29.81 in WNW 6.9 mph 6.9 mph 40 % 0.00 in
15:52 83.2 °F 56.4 °F 29.81 in North 6.0 mph 6.0 mph 40 % 0.00 in
15:57 83.4 °F 57.9 °F 29.81 in NW 2.3 mph 2.3 mph 42 % 0.00 in
16:02 83.6 °F 57.4 °F 29.81 in NW 3.5 mph 3.5 mph 41 % 0.00 in
16:07 83.2 °F 56.4 °F 29.81 in NNW 5.8 mph 5.8 mph 40 % 0.00 in
16:12 83.2 °F 57.1 °F 29.81 in WNW 3.5 mph 3.5 mph 41 % 0.00 in
16:17 83.1 °F 56.3 °F 29.81 in North 4.6 mph 4.6 mph 40 % 0.00 in
16:22 82.8 °F 56.0 °F 29.80 in NW 3.5 mph 3.5 mph 40 % 0.00 in
16:27 82.9 °F 56.1 °F 29.80 in NW 3.5 mph 3.5 mph 40 % 0.00 in
16:32 82.9 °F 56.8 °F 29.80 in North 3.0 mph 3.0 mph 41 % 0.00 in
16:37 82.8 °F 56.7 °F 29.80 in WNW 3.5 mph 3.5 mph 41 % 0.00 in
16:42 82.9 °F 56.1 °F 29.80 in NW 3.5 mph 3.5 mph 40 % 0.00 in
16:52 82.6 °F 57.2 °F 29.80 in NW 3.0 mph 3.0 mph 42 % 0.00 in
16:57 82.5 °F 56.4 °F 29.80 in NW 4.0 mph 4.0 mph 41 % 0.00 in
17:02 82.4 °F 56.3 °F 29.80 in WNW 1.2 mph 1.2 mph 41 % 0.00 in
17:07 82.4 °F 55.7 °F 29.80 in NW 3.5 mph 3.5 mph 40 % 0.00 in
17:12 82.2 °F 56.2 °F 29.80 in NW 1.2 mph 1.2 mph 41 % 0.00 in
17:17 82.1 °F 56.1 °F 29.80 in NW 3.5 mph 3.5 mph 41 % 0.00 in
17:22 82.0 °F 55.3 °F 29.80 in NW 3.5 mph 3.5 mph 40 % 0.00 in
17:27 81.8 °F 55.1 °F 29.80 in NW 3.5 mph 3.5 mph 40 % 0.00 in
17:32 81.6 °F 55.6 °F 29.80 in WNW 2.0 mph 2.0 mph 41 % 0.00 in
17:37 81.5 °F 54.2 °F 29.80 in NW 3.5 mph 3.5 mph 39 % 0.00 in
17:42 81.4 °F 54.8 °F 29.80 in West 3.5 mph 3.5 mph 40 % 0.00 in
17:47 81.2 °F 54.6 °F 29.80 in West 3.5 mph 3.5 mph 40 % 0.00 in
17:52 81.0 °F 55.7 °F 29.79 in NW 2.3 mph 2.3 mph 42 % 0.00 in
17:54 80.9 °F 55.7 °F 29.79 in NNE 1.2 mph 1.2 mph 42 % 0.00 in
17:59 80.6 °F 55.4 °F 29.79 in WNW 1.2 mph 1.2 mph 42 % 0.00 in
18:04 80.3 °F 54.5 °F 29.80 in NW 3.5 mph 3.5 mph 41 % 0.00 in
18:09 80.0 °F 54.2 °F 29.80 in NW 3.0 mph 3.0 mph 41 % 0.00 in
18:14 79.7 °F 54.6 °F 29.80 in NNW 2.3 mph 2.3 mph 42 % 0.00 in
18:19 79.3 °F 54.2 °F 29.80 in NW 3.5 mph 3.5 mph 42 % 0.00 in
18:24 78.9 °F 53.9 °F 29.80 in WNW 1.2 mph 1.2 mph 42 % 0.00 in
18:29 78.4 °F 54.0 °F 29.80 in NW 1.0 mph 1.0 mph 43 % 0.00 in
18:34 77.9 °F 53.6 °F 29.80 in NW 1.2 mph 1.2 mph 43 % 0.00 in
18:39 77.4 °F 53.8 °F 29.80 in Calm     44 % 0.00 in
18:44 77.0 °F 53.4 °F 29.80 in WNW 1.2 mph   44 % 0.00 in
18:49 76.4 °F 53.5 °F 29.80 in WNW 1.0 mph 1.0 mph 45 % 0.00 in
18:54 75.8 °F 53.5 °F 29.80 in Calm     46 % 0.00 in
18:59 75.3 °F 53.7 °F 29.80 in WNW 1.2 mph   47 % 0.00 in
19:04 74.8 °F 53.8 °F 29.80 in Calm     48 % 0.00 in
19:09 74.5 °F 53.5 °F 29.81 in Calm     48 % 0.00 in
19:14 74.2 °F 53.8 °F 29.81 in Calm     49 % 0.00 in
19:19 73.7 °F 54.4 °F 29.81 in Calm     51 % 0.00 in
19:24 73.1 °F 54.4 °F 29.81 in Calm     52 % 0.00 in
19:29 72.4 °F 54.8 °F 29.81 in Calm     54 % 0.00 in
19:34 71.8 °F 55.3 °F 29.81 in Calm     56 % 0.00 in
19:39 71.2 °F 55.7 °F 29.82 in Calm     58 % 0.00 in
19:44 70.6 °F 55.6 °F 29.82 in Calm     59 % 0.00 in
19:49 70.1 °F 55.6 °F 29.82 in Calm     60 % 0.00 in
19:54 69.7 °F 55.6 °F 29.82 in Calm     61 % 0.00 in
19:59 69.3 °F 56.2 °F 29.82 in Calm     63 % 0.00 in
20:04 69.0 °F 55.9 °F 29.82 in Calm     63 % 0.00 in
20:09 68.9 °F 55.3 °F 29.82 in Calm     62 % 0.00 in
20:14 69.4 °F 54.4 °F 29.82 in Calm     59 % 0.00 in
20:19 70.1 °F 54.2 °F 29.82 in North 1.2 mph 1.2 mph 57 % 0.00 in
20:22 70.4 °F 54.4 °F 29.82 in North 1.2 mph   57 % 0.00 in
20:27 70.6 °F 54.1 °F 29.82 in Calm     56 % 0.00 in
20:32 70.6 °F 54.1 °F 29.82 in Calm     56 % 0.00 in
20:37 70.5 °F 54.0 °F 29.83 in Calm     56 % 0.00 in
20:42 70.4 °F 54.0 °F 29.83 in Calm     56 % 0.00 in
20:47 70.4 °F 54.4 °F 29.83 in Calm     57 % 0.00 in
20:52 70.4 °F 54.0 °F 29.83 in Calm     56 % 0.00 in
20:57 70.4 °F 54.0 °F 29.83 in North 1.2 mph   56 % 0.00 in
21:02 70.3 °F 54.8 °F 29.84 in Calm     58 % 0.00 in
21:07 70.0 °F 55.0 °F 29.84 in Calm     59 % 0.00 in
21:12 69.5 °F 55.0 °F 29.84 in Calm     60 % 0.00 in
21:17 69.1 °F 54.6 °F 29.84 in Calm     60 % 0.00 in
21:22 69.0 °F 54.5 °F 29.84 in Calm     60 % 0.00 in
21:27 69.1 °F 54.6 °F 29.84 in Calm     60 % 0.00 in
21:32 68.9 °F 54.9 °F 29.84 in Calm     61 % 0.00 in
21:37 68.9 °F 54.9 °F 29.84 in NNW 1.2 mph   61 % 0.00 in
21:42 68.8 °F 54.3 °F 29.85 in NNW 1.2 mph   60 % 0.00 in
21:47 68.7 °F 54.7 °F 29.85 in NW 1.2 mph   61 % 0.00 in
21:52 68.7 °F 54.7 °F 29.85 in Calm     61 % 0.00 in
21:57 68.7 °F 54.7 °F 29.85 in Calm     61 % 0.00 in
22:02 68.6 °F 54.6 °F 29.85 in Calm     61 % 0.00 in
22:08 68.5 °F 54.5 °F 29.85 in Calm     61 % 0.00 in
22:13 68.3 °F 54.8 °F 29.85 in Calm     62 % 0.00 in
22:18 68.1 °F 54.6 °F 29.85 in Calm     62 % 0.00 in
22:23 67.7 °F 55.5 °F 29.85 in Calm     65 % 0.00 in
22:28 67.3 °F 55.1 °F 29.85 in Calm     65 % 0.00 in
22:33 66.7 °F 55.4 °F 29.85 in Calm     67 % 0.00 in
22:38 66.2 °F 54.9 °F 29.85 in Calm     67 % 0.00 in
22:43 65.8 °F 55.3 °F 29.85 in Calm     69 % 0.00 in
22:48 65.4 °F 55.7 °F 29.85 in Calm     71 % 0.00 in
22:53 65.0 °F 55.8 °F 29.85 in Calm     72 % 0.00 in
22:58 64.5 °F 55.7 °F 29.85 in Calm     73 % 0.00 in
23:03 64.2 °F 55.7 °F 29.85 in Calm     74 % 0.00 in
23:08 63.9 °F 56.2 °F 29.85 in Calm     76 % 0.00 in
23:13 63.6 °F 55.9 °F 29.85 in Calm     76 % 0.00 in
23:14 63.5 °F 55.8 °F 29.85 in Calm     76 % 0.00 in
23:19 63.3 °F 55.6 °F 29.85 in Calm     76 % 0.00 in
23:24 63.2 °F 55.5 °F 29.85 in Calm     76 % 0.00 in
23:29 63.3 °F 54.9 °F 29.85 in Calm     74 % 0.00 in
23:34 63.2 °F 54.8 °F 29.86 in Calm     74 % 0.00 in
23:39 63.0 °F 54.6 °F 29.86 in Calm   0.1 mph 74 % 0.00 in
23:44 62.4 °F 54.4 °F 29.86 in Calm     75 % 0.00 in
23:49 61.9 °F 54.6 °F 29.86 in Calm     77 % 0.00 in
23:54 61.6 °F 54.3 °F 29.86 in Calm     77 % 0.00 in
23:59 61.4 °F 54.5 °F 29.86 in Calm     78 % 0.00 in
Park Place, Exeter, Tulare County, California, USA
Compliments of Weather Underground - 2.75 mb